Time;durP1;ratioP1;P1;durP2;ratioP2;P2;SDS_P1;SDS_P2;PMS_P1;PMS_P2;Temp;Humidity;BMP_temperature;BMP_pressure;BME280_temperature;BME280_humidity;BME280_pressure;Samples;Min_cycle;Max_cycle;Signal;HPM_P1;HPM_P2
2022/05/01 00:01:16;;;;;;;15.13;8.75;;;10.30;99.90;;;;;;5070191;28;20041;-59
2022/05/01 00:03:44;;;;;;;16.65;8.88;;;10.30;99.90;;;;;;5067900;28;20054;-59
2022/05/01 00:06:13;;;;;;;20.83;9.20;;;10.20;99.90;;;;;;5068435;28;20499;-60
2022/05/01 00:08:42;;;;;;;14.80;8.88;;;10.20;99.90;;;;;;5064282;28;20045;-61
2022/05/01 00:11:10;;;;;;;18.95;9.40;;;10.20;99.90;;;;;;5062964;28;20045;-62
2022/05/01 00:13:41;;;;;;;18.17;8.85;;;10.20;99.90;;;;;;5066011;28;20217;-59
2022/05/01 00:16:09;;;;;;;22.25;9.77;;;10.20;99.90;;;;;;5071839;28;20048;-59
2022/05/01 00:18:37;;;;;;;18.20;9.70;;;10.20;99.90;;;;;;5068933;28;20059;-62
2022/05/01 00:21:05;;;;;;;17.38;9.10;;;10.20;99.90;;;;;;5061549;28;20041;-60
2022/05/01 00:23:33;;;;;;;20.98;9.40;;;10.20;99.90;;;;;;5051396;28;20056;-60
2022/05/01 00:26:03;;;;;;;16.50;9.38;;;10.20;99.90;;;;;;5051587;28;20041;-62
2022/05/01 00:28:32;;;;;;;18.15;9.38;;;10.20;99.90;;;;;;5057898;28;20385;-62
2022/05/01 00:31:00;;;;;;;20.20;8.88;;;10.20;99.90;;;;;;5068796;28;20056;-63
2022/05/01 00:36:25;;;;;;;16.33;9.30;;;10.20;99.90;;;;;;5049896;28;20503;-60
2022/05/01 00:39:03;;;;;;;14.55;8.43;;;10.20;99.90;;;;;;5062757;28;20405;-59
2022/05/01 00:41:32;;;;;;;18.63;9.55;;;10.20;99.90;;;;;;5071376;28;20052;-61
2022/05/01 00:44:15;;;;;;;17.67;9.48;;;10.20;99.90;;;;;;5071350;28;20059;-64
2022/05/01 00:46:45;;;;;;;16.00;8.40;;;10.20;99.90;;;;;;5071447;28;20041;-63
2022/05/01 00:49:16;;;;;;;19.63;9.80;;;10.20;99.90;;;;;;5066897;28;20428;-62
2022/05/01 00:51:46;;;;;;;18.35;8.43;;;10.10;99.90;;;;;;5053274;28;20064;-64
2022/05/01 00:54:20;;;;;;;21.38;9.80;;;10.10;99.90;;;;;;5051201;28;20416;-59
2022/05/01 00:56:50;;;;;;;17.95;8.63;;;10.10;99.90;;;;;;5066403;28;20051;-61
2022/05/01 00:59:18;;;;;;;17.30;8.77;;;10.10;99.90;;;;;;5064501;28;20053;-62
2022/05/01 01:01:48;;;;;;;16.20;8.68;;;10.10;99.90;;;;;;5070115;28;20036;-59
2022/05/01 01:04:17;;;;;;;16.25;8.95;;;10.10;99.90;;;;;;5067847;28;20052;-59
2022/05/01 01:06:45;;;;;;;17.60;9.05;;;10.00;99.90;;;;;;5063893;28;20397;-60
2022/05/01 01:09:14;;;;;;;21.38;9.55;;;10.00;99.90;;;;;;5066307;28;20047;-59
2022/05/01 01:11:42;;;;;;;21.02;10.00;;;10.00;99.90;;;;;;5070974;28;20056;-59
2022/05/01 01:14:11;;;;;;;16.15;9.15;;;10.00;99.90;;;;;;5064461;28;20060;-59
2022/05/01 01:16:41;;;;;;;17.27;10.07;;;9.90;99.90;;;;;;5049827;28;20060;-58
2022/05/01 01:19:09;;;;;;;20.92;9.57;;;9.90;99.90;;;;;;5061963;28;20516;-59
2022/05/01 01:21:37;;;;;;;18.42;8.63;;;9.90;99.90;;;;;;5067038;28;20041;-58
2022/05/01 01:24:10;;;;;;;18.67;9.32;;;9.90;99.90;;;;;;5059346;28;20055;-62
2022/05/01 01:26:39;;;;;;;18.38;8.70;;;9.90;99.90;;;;;;5069672;28;20052;-62
2022/05/01 01:31:40;;;;;;;15.35;8.25;;;9.90;99.90;;;;;;5064194;28;20064;-62
2022/05/01 01:31:55;;;;;;;16.70;9.02;;;9.90;99.90;;;;;;5054502;28;20388;-63
2022/05/01 01:34:36;;;;;;;14.63;8.27;;;9.90;99.90;;;;;;5051956;28;20052;-64
2022/05/01 01:37:07;;;;;;;16.67;8.98;;;9.80;99.90;;;;;;5051652;28;20037;-63
2022/05/01 01:39:34;;;;;;;16.27;8.43;;;9.80;99.90;;;;;;5066837;28;20048;-62
2022/05/01 01:42:07;;;;;;;14.85;9.23;;;9.80;99.90;;;;;;5070611;28;20041;-60
2022/05/01 01:44:38;;;;;;;19.00;8.57;;;9.80;99.90;;;;;;5070262;28;20032;-60
2022/05/01 01:47:06;;;;;;;14.95;8.85;;;9.80;99.90;;;;;;5063689;28;20037;-60
2022/05/01 01:49:34;;;;;;;16.67;8.15;;;9.80;99.90;;;;;;5057710;28;20489;-61
2022/05/01 01:52:02;;;;;;;16.15;8.52;;;9.90;99.90;;;;;;5056457;28;20048;-59
2022/05/01 01:54:29;;;;;;;14.90;8.18;;;9.80;99.90;;;;;;5071721;28;20056;-60
2022/05/01 01:56:59;;;;;;;18.05;8.05;;;9.80;99.90;;;;;;5067020;28;20048;-60
2022/05/01 01:59:26;;;;;;;17.45;7.57;;;9.70;99.90;;;;;;5049694;28;20052;-60
2022/05/01 02:01:54;;;;;;;16.25;8.13;;;9.70;99.90;;;;;;5050461;28;20380;-59
2022/05/01 02:04:22;;;;;;;14.68;8.07;;;9.70;99.90;;;;;;5050962;28;20079;-59
2022/05/01 02:06:49;;;;;;;14.95;8.13;;;9.60;99.90;;;;;;5050830;28;20056;-63
2022/05/01 02:09:18;;;;;;;13.95;7.85;;;9.60;99.90;;;;;;5050602;28;20040;-61
2022/05/01 02:11:46;;;;;;;14.90;8.38;;;9.50;99.90;;;;;;5052818;28;20041;-60
2022/05/01 02:14:13;;;;;;;15.05;8.65;;;9.50;99.90;;;;;;5051922;28;20044;-62
2022/05/01 02:16:41;;;;;;;16.50;8.45;;;9.40;99.90;;;;;;5056930;28;20044;-61
2022/05/01 02:19:09;;;;;;;16.80;8.52;;;9.40;99.90;;;;;;5071424;28;20051;-60
2022/05/01 02:21:36;;;;;;;18.05;8.23;;;9.40;99.90;;;;;;5068388;28;20403;-60
2022/05/01 02:24:12;;;;;;;18.65;8.60;;;9.30;99.90;;;;;;5055797;28;20040;-60
2022/05/01 02:26:40;;;;;;;19.13;7.43;;;9.20;99.90;;;;;;5033520;28;20053;-60
2022/05/01 02:29:10;;;;;;;16.17;9.18;;;9.20;99.90;;;;;;5051368;28;20384;-64
2022/05/01 02:31:40;;;;;;;15.30;7.93;;;9.20;99.90;;;;;;5051107;28;20053;-63
2022/05/01 02:34:09;;;;;;;17.15;8.20;;;9.20;99.90;;;;;;5051320;28;20484;-60
2022/05/01 02:36:38;;;;;;;13.97;8.40;;;9.20;99.90;;;;;;5052716;28;20522;-62
2022/05/01 02:39:06;;;;;;;14.63;7.90;;;9.20;99.90;;;;;;5052591;28;20059;-62
2022/05/01 02:41:33;;;;;;;17.23;7.70;;;9.20;99.90;;;;;;5053832;28;20045;-61
2022/05/01 02:44:02;;;;;;;14.05;8.20;;;9.20;99.90;;;;;;5071132;28;20053;-63
2022/05/01 02:46:31;;;;;;;17.63;9.10;;;9.20;99.90;;;;;;5064401;28;20060;-63
2022/05/01 02:48:59;;;;;;;17.08;9.48;;;9.10;99.90;;;;;;5051271;28;20060;-62
2022/05/01 02:51:26;;;;;;;14.60;8.50;;;9.20;99.90;;;;;;5050567;28;20045;-62
2022/05/01 02:53:55;;;;;;;18.40;8.55;;;9.10;99.90;;;;;;5070830;28;20052;-63
2022/05/01 02:56:22;;;;;;;18.52;9.20;;;9.10;99.90;;;;;;5051256;28;20492;-61
2022/05/01 02:58:50;;;;;;;15.82;6.50;;;9.10;99.90;;;;;;5070302;28;20047;-63
2022/05/01 03:01:18;;;;;;;17.80;9.35;;;9.00;99.90;;;;;;5050867;28;20049;-64
2022/05/01 03:03:45;;;;;;;18.77;9.65;;;9.00;99.90;;;;;;5049921;28;20500;-59
2022/05/01 03:06:13;;;;;;;18.30;9.73;;;8.90;99.90;;;;;;5057078;28;20048;-60
2022/05/01 03:08:40;;;;;;;16.75;9.40;;;8.90;99.90;;;;;;5050776;28;20021;-59
2022/05/01 03:11:08;;;;;;;15.77;8.38;;;8.90;99.90;;;;;;5067301;28;20484;-60
2022/05/01 03:13:36;;;;;;;17.00;9.98;;;8.80;99.90;;;;;;5051508;28;20056;-59
2022/05/01 03:16:04;;;;;;;17.77;9.82;;;8.80;99.90;;;;;;5051199;28;20530;-60
2022/05/01 03:24:04;;;;;;;18.02;9.15;;;8.90;99.90;;;;;;5054281;28;20051;-59
2022/05/01 03:26:31;;;;;;;15.55;8.63;;;8.90;99.90;;;;;;5050313;28;20045;-60
2022/05/01 03:28:59;;;;;;;17.38;8.57;;;8.90;99.90;;;;;;5051915;28;20041;-58
2022/05/01 03:31:28;;;;;;;13.18;7.43;;;8.90;99.90;;;;;;5050474;28;20049;-58
2022/05/01 03:33:56;;;;;;;15.52;8.00;;;8.90;99.90;;;;;;5050297;28;20044;-59
2022/05/01 03:36:24;;;;;;;16.58;9.02;;;8.90;99.90;;;;;;5049191;28;20045;-59
2022/05/01 03:38:52;;;;;;;20.17;7.80;;;8.80;99.90;;;;;;5055466;28;20048;-58
2022/05/01 03:41:19;;;;;;;18.27;9.38;;;8.80;99.90;;;;;;5057861;28;20040;-59
2022/05/01 03:43:47;;;;;;;13.48;7.75;;;8.80;99.90;;;;;;5057599;28;20044;-58
2022/05/01 03:46:15;;;;;;;20.67;9.93;;;8.80;99.90;;;;;;5052909;28;20045;-58
2022/05/01 03:48:42;;;;;;;21.58;10.55;;;8.80;99.90;;;;;;5053986;28;20049;-59
2022/05/01 03:51:10;;;;;;;21.35;9.63;;;8.80;99.90;;;;;;5053965;28;20049;-59
2022/05/01 03:53:38;;;;;;;15.30;8.93;;;8.80;99.90;;;;;;5060957;28;20049;-59
2022/05/01 03:56:06;;;;;;;16.92;8.50;;;8.70;99.90;;;;;;5064213;28;20059;-58
2022/05/01 03:58:34;;;;;;;16.95;9.60;;;8.70;99.90;;;;;;5053127;28;20052;-59
2022/05/01 04:01:01;;;;;;;15.10;8.27;;;8.70;99.90;;;;;;5054162;28;20056;-58
2022/05/01 04:03:29;;;;;;;17.17;8.82;;;8.60;99.90;;;;;;5052604;28;20033;-59
2022/05/01 04:05:57;;;;;;;17.25;8.55;;;8.60;99.90;;;;;;5053715;28;20049;-62
2022/05/01 04:08:25;;;;;;;18.95;8.98;;;8.60;99.90;;;;;;5052865;28;20055;-61
2022/05/01 04:10:52;;;;;;;17.88;9.30;;;8.60;99.90;;;;;;5066802;28;20041;-60
2022/05/01 04:13:20;;;;;;;15.07;8.15;;;8.60;99.90;;;;;;5070709;28;20044;-58
2022/05/01 04:15:48;;;;;;;18.60;8.93;;;8.60;99.90;;;;;;5073615;28;20045;-57
2022/05/01 04:18:15;;;;;;;15.60;8.68;;;8.50;99.90;;;;;;5073453;28;20040;-59
2022/05/01 04:20:45;;;;;;;18.52;8.82;;;8.50;99.90;;;;;;5073516;28;20052;-57
2022/05/01 04:23:12;;;;;;;15.95;8.68;;;8.50;99.90;;;;;;5071396;28;20071;-59
2022/05/01 04:25:40;;;;;;;13.10;7.35;;;8.50;99.90;;;;;;5073108;28;20052;-58
2022/05/01 04:28:10;;;;;;;14.68;8.73;;;8.60;99.90;;;;;;5060557;28;20055;-58
2022/05/01 04:30:38;;;;;;;;;;;8.40;99.90;;;;;;5070854;28;20048;-59
2022/05/01 04:33:10;;;;;;;13.43;7.47;;;8.40;99.90;;;;;;5070083;28;20280;-58
2022/05/01 04:35:42;;;;;;;15.63;9.07;;;8.40;99.90;;;;;;5054598;28;20040;-61
2022/05/01 04:38:11;;;;;;;15.38;8.85;;;8.40;99.90;;;;;;5056858;28;20395;-59
2022/05/01 04:40:42;;;;;;;19.05;9.18;;;8.40;99.90;;;;;;5056425;28;20052;-59
2022/05/01 04:43:12;;;;;;;19.40;9.65;;;8.40;99.90;;;;;;5068189;28;20064;-59
2022/05/01 04:45:42;;;;;;;15.43;8.27;;;8.40;99.90;;;;;;5051346;28;20044;-61
2022/05/01 04:48:11;;;;;;;14.25;7.70;;;8.30;99.90;;;;;;5057249;28;20044;-62
2022/05/01 04:50:40;;;;;;;14.55;8.25;;;8.40;99.90;;;;;;5048393;28;20512;-59
2022/05/01 04:53:10;;;;;;;13.73;6.93;;;8.30;99.90;;;;;;5049333;28;20072;-59
2022/05/01 04:55:39;;;;;;;17.25;7.75;;;8.30;99.90;;;;;;5047715;28;20041;-58
2022/05/01 04:58:09;;;;;;;16.35;7.78;;;8.30;99.90;;;;;;5068162;28;20056;-59
2022/05/01 05:00:37;;;;;;;13.80;7.72;;;8.30;99.90;;;;;;5050045;28;20049;-59
2022/05/01 05:03:05;;;;;;;15.52;7.20;;;8.30;99.90;;;;;;5051588;28;20048;-59
2022/05/01 05:05:36;;;;;;;13.82;7.90;;;8.30;99.90;;;;;;5065608;28;20052;-62
2022/05/01 05:10:53;;;;;;;15.15;7.85;;;8.20;99.90;;;;;;5047365;28;20033;-61
2022/05/01 05:13:27;;;;;;;13.05;7.88;;;8.30;99.90;;;;;;5061900;28;20047;-58
2022/05/01 05:15:59;;;;;;;21.25;9.75;;;8.30;99.90;;;;;;5069688;28;20044;-59
2022/05/01 05:18:28;;;;;;;12.68;7.45;;;8.30;99.90;;;;;;5061804;28;20048;-60
2022/05/01 05:20:56;;;;;;;15.35;7.65;;;8.30;99.90;;;;;;5047777;28;20530;-60
2022/05/01 05:23:24;;;;;;;12.82;7.30;;;8.30;99.90;;;;;;5047234;28;20048;-60
2022/05/01 05:25:52;;;;;;;13.05;7.43;;;8.30;99.90;;;;;;5048459;28;20052;-62
2022/05/01 05:28:19;;;;;;;14.88;7.13;;;8.30;99.90;;;;;;5049829;28;20036;-60
2022/05/01 05:30:48;;;;;;;15.00;7.32;;;8.30;99.90;;;;;;5064961;28;20056;-63
2022/05/01 05:33:18;;;;;;;13.65;7.13;;;8.30;99.90;;;;;;5069010;28;20044;-60
2022/05/01 05:35:46;;;;;;;12.43;6.60;;;8.30;99.90;;;;;;5053689;28;20511;-61
2022/05/01 05:38:14;;;;;;;13.65;8.07;;;8.30;99.90;;;;;;5060849;28;20059;-59
2022/05/01 05:40:41;;;;;;;14.32;6.88;;;8.30;99.90;;;;;;5070127;28;20412;-60
2022/05/01 05:43:09;;;;;;;10.05;6.60;;;8.30;99.90;;;;;;5067409;28;20040;-58
2022/05/01 05:45:37;;;;;;;11.45;6.05;;;8.40;99.90;;;;;;5067799;28;20514;-60
2022/05/01 05:48:06;;;;;;;13.02;6.50;;;8.30;99.90;;;;;;5068008;28;20045;-59
2022/05/01 05:50:33;;;;;;;12.48;6.78;;;8.30;99.90;;;;;;5054817;28;20492;-60
2022/05/01 05:53:01;;;;;;;13.70;6.88;;;8.40;99.90;;;;;;5054906;28;20493;-61
2022/05/01 05:55:33;;;;;;;15.13;6.70;;;8.40;99.90;;;;;;5058214;28;20060;-59
2022/05/01 05:58:01;;;;;;;13.45;6.55;;;8.40;99.90;;;;;;5063687;28;20063;-58
2022/05/01 06:00:29;;;;;;;13.02;6.80;;;8.40;99.90;;;;;;5069568;28;20044;-59
2022/05/01 06:02:57;;;;;;;14.27;7.57;;;8.40;99.90;;;;;;5066285;28;20048;-60
2022/05/01 06:05:25;;;;;;;14.18;7.10;;;8.40;99.90;;;;;;5064549;28;20052;-60
2022/05/01 06:07:53;;;;;;;12.95;7.15;;;8.40;99.90;;;;;;5069873;28;20403;-59
2022/05/01 06:10:21;;;;;;;13.15;6.43;;;8.40;99.90;;;;;;5052432;28;20084;-61
2022/05/01 06:12:49;;;;;;;11.93;7.10;;;8.40;99.90;;;;;;5044861;28;20048;-58
2022/05/01 06:15:20;;;;;;;12.43;7.18;;;8.40;99.90;;;;;;5058148;28;20047;-61
2022/05/01 06:17:49;;;;;;;16.10;7.25;;;8.40;99.90;;;;;;5044271;28;20040;-58
2022/05/01 06:20:18;;;;;;;15.50;7.20;;;8.50;99.90;;;;;;5048480;28;20056;-59
2022/05/01 06:22:51;;;;;;;9.95;6.53;;;8.50;99.90;;;;;;5054153;28;20048;-59
2022/05/01 06:25:19;;;;;;;13.50;7.90;;;8.50;99.90;;;;;;5063681;28;20390;-58
2022/05/01 06:27:46;;;;;;;14.27;7.63;;;8.50;99.90;;;;;;5057692;28;20115;-59
2022/05/01 06:30:14;;;;;;;11.77;7.07;;;8.60;99.90;;;;;;5053882;28;20403;-59
2022/05/01 06:32:43;;;;;;;12.65;7.05;;;8.60;99.90;;;;;;5058592;28;20041;-59
2022/05/01 06:35:11;;;;;;;14.07;7.35;;;8.60;99.90;;;;;;5064740;28;20040;-58
2022/05/01 06:37:40;;;;;;;15.23;7.65;;;8.70;99.90;;;;;;5063891;28;20064;-59
2022/05/01 06:40:08;;;;;;;11.60;6.57;;;8.70;99.90;;;;;;5038643;28;20063;-58
2022/05/01 06:42:36;;;;;;;13.40;7.78;;;8.70;99.90;;;;;;5060470;28;20519;-59
2022/05/01 06:45:05;;;;;;;13.35;6.95;;;8.80;99.90;;;;;;5048698;28;20056;-60
2022/05/01 06:47:32;;;;;;;11.68;7.75;;;8.80;99.90;;;;;;5052009;28;20055;-59
2022/05/01 06:50:00;;;;;;;16.92;7.88;;;8.80;99.90;;;;;;5053985;28;20401;-58
2022/05/01 06:52:28;;;;;;;11.43;6.35;;;8.80;99.90;;;;;;5049411;28;20059;-59
2022/05/01 06:54:56;;;;;;;15.57;7.78;;;8.90;99.90;;;;;;5051623;28;20041;-59
2022/05/01 06:57:23;;;;;;;14.07;6.80;;;8.90;99.90;;;;;;5048455;28;20048;-58
2022/05/01 06:59:51;;;;;;;13.52;7.65;;;8.90;99.90;;;;;;5063024;28;20040;-58
2022/05/01 07:02:19;;;;;;;12.60;7.25;;;9.00;99.90;;;;;;5057236;28;20405;-58
2022/05/01 07:04:47;;;;;;;16.48;6.93;;;9.00;99.90;;;;;;5055847;28;20045;-59
2022/05/01 07:07:15;;;;;;;12.18;7.50;;;9.00;99.90;;;;;;5046138;28;20518;-62
2022/05/01 07:09:43;;;;;;;12.68;6.82;;;9.00;99.90;;;;;;5049123;28;20048;-59
2022/05/01 07:12:11;;;;;;;13.63;6.88;;;9.00;99.90;;;;;;5061423;28;20052;-59
2022/05/01 07:14:39;;;;;;;11.18;7.10;;;9.00;99.90;;;;;;5042673;28;20044;-59
2022/05/01 07:17:07;;;;;;;13.23;7.75;;;9.00;99.90;;;;;;5053133;28;20048;-58
2022/05/01 07:19:35;;;;;;;16.92;8.18;;;9.00;99.90;;;;;;5070535;28;20052;-60
2022/05/01 07:22:03;;;;;;;14.73;6.85;;;9.00;99.90;;;;;;5058277;28;20045;-59
2022/05/01 07:24:30;;;;;;;13.20;6.68;;;9.00;99.90;;;;;;5053589;28;20155;-59
2022/05/01 07:26:58;;;;;;;12.77;7.10;;;9.00;99.90;;;;;;5059856;28;20048;-60
2022/05/01 07:29:26;;;;;;;20.85;8.48;;;9.00;99.90;;;;;;5052051;28;20037;-59
2022/05/01 07:31:54;;;;;;;17.17;7.88;;;9.10;99.90;;;;;;5055619;28;20051;-60
2022/05/01 07:34:22;;;;;;;14.88;7.47;;;9.10;99.90;;;;;;5068131;28;20396;-63
2022/05/01 07:36:49;;;;;;;11.45;7.63;;;9.10;99.90;;;;;;5060388;28;20124;-62
2022/05/01 07:39:17;;;;;;;13.55;7.38;;;9.20;99.90;;;;;;5069639;28;20041;-62
2022/05/01 07:41:44;;;;;;;11.70;7.55;;;9.20;99.90;;;;;;5063580;28;20045;-61
2022/05/01 07:44:12;;;;;;;15.05;8.05;;;9.30;99.90;;;;;;5050613;28;20048;-59
2022/05/01 07:46:43;;;;;;;13.60;8.10;;;9.40;99.90;;;;;;5048126;28;20068;-59
2022/05/01 07:49:12;;;;;;;12.90;7.82;;;9.40;99.90;;;;;;5066408;28;20491;-63
2022/05/01 07:51:40;;;;;;;16.88;8.05;;;9.40;99.90;;;;;;5068422;28;20048;-60
2022/05/01 07:54:08;;;;;;;13.98;8.10;;;9.50;99.90;;;;;;5051446;28;20484;-60
2022/05/01 07:56:36;;;;;;;17.02;8.48;;;9.50;99.90;;;;;;5055797;28;20731;-61
2022/05/01 07:59:03;;;;;;;16.00;8.38;;;9.60;99.90;;;;;;5062003;28;20080;-62
2022/05/01 08:01:31;;;;;;;14.05;7.97;;;9.60;99.90;;;;;;5053107;28;20052;-59
2022/05/01 08:06:46;;;;;;;14.18;8.25;;;9.80;99.90;;;;;;5069060;28;20048;-58
2022/05/01 08:09:13;;;;;;;14.80;8.27;;;9.80;99.90;;;;;;5057054;28;20044;-58
2022/05/01 08:11:41;;;;;;;17.77;9.15;;;9.80;99.90;;;;;;5052030;28;20052;-59
2022/05/01 08:14:10;;;;;;;14.20;7.70;;;9.90;99.90;;;;;;5050546;28;20048;-59
2022/05/01 08:16:42;;;;;;;13.00;7.72;;;9.90;99.90;;;;;;5052107;28;20053;-58
2022/05/01 08:21:56;;;;;;;15.60;8.23;;;10.00;99.90;;;;;;5069488;28;20407;-60
2022/05/01 08:24:24;;;;;;;15.27;9.02;;;10.00;99.90;;;;;;5058556;28;20045;-59
2022/05/01 08:26:52;;;;;;;12.43;8.35;;;10.10;99.90;;;;;;5059374;28;20045;-58
2022/05/01 08:29:19;;;;;;;17.40;8.35;;;10.10;99.90;;;;;;5068568;28;20055;-60
2022/05/01 08:31:48;;;;;;;13.63;8.03;;;10.10;99.90;;;;;;5051106;28;20053;-59
2022/05/01 08:34:17;;;;;;;17.02;9.05;;;10.20;99.90;;;;;;5050624;28;20052;-58
2022/05/01 08:36:45;;;;;;;16.67;9.38;;;10.30;99.90;;;;;;5052010;28;20052;-59
2022/05/01 08:39:13;;;;;;;15.35;8.55;;;10.30;99.90;;;;;;5054725;28;20049;-58
2022/05/01 08:41:41;;;;;;;14.82;8.32;;;10.40;99.90;;;;;;5065456;28;20044;-59
2022/05/01 08:44:13;;;;;;;14.63;8.32;;;10.50;99.90;;;;;;5054654;28;20633;-58
2022/05/01 08:47:03;;;;;;;14.65;9.18;;;10.50;99.90;;;;;;5049657;28;20049;-58
2022/05/01 08:49:33;;;;;;;13.60;8.70;;;10.50;99.90;;;;;;5070991;28;20040;-58
2022/05/01 08:52:01;;;;;;;;;;;10.60;99.90;;;;;;5068505;28;20080;-58
2022/05/01 08:54:32;;;;;;;15.48;7.90;;;10.60;99.90;;;;;;5051099;28;19920;-59
2022/05/01 08:57:00;;;;;;;12.95;8.20;;;10.70;99.90;;;;;;5058994;28;20055;-58
2022/05/01 08:59:29;;;;;;;13.10;8.30;;;10.70;99.90;;;;;;5068926;28;20110;-58
2022/05/01 09:01:58;;;;;;;10.68;7.78;;;10.80;99.90;;;;;;5058903;28;20053;-58
2022/05/01 09:04:26;;;;;;;13.27;8.43;;;10.90;99.90;;;;;;5053526;28;20526;-59
2022/05/01 09:06:54;;;;;;;11.20;7.43;;;11.00;99.90;;;;;;5055290;28;20049;-59
2022/05/01 09:09:23;;;;;;;13.63;7.85;;;11.10;99.90;;;;;;5061834;28;20045;-58
2022/05/01 09:14:41;;;;;;;11.55;7.57;;;11.30;99.90;;;;;;5070887;28;20044;-58
2022/05/01 09:17:17;;;;;;;12.27;8.32;;;11.30;99.90;;;;;;5070742;28;20055;-59
2022/05/01 09:19:48;;;;;;;13.60;8.40;;;11.30;99.90;;;;;;5055462;28;20480;-58
2022/05/01 09:22:19;;;;;;;12.98;8.80;;;11.30;99.90;;;;;;5050480;28;20400;-58
2022/05/01 09:24:53;;;;;;;15.65;8.88;;;11.40;99.90;;;;;;5049539;28;20362;-60
2022/05/01 09:27:31;;;;;;;13.60;8.38;;;11.40;99.90;;;;;;5049303;28;20048;-58
2022/05/01 09:30:22;;;;;;;15.88;7.95;;;11.50;99.90;;;;;;5054649;28;20041;-59
2022/05/01 09:32:53;;;;;;;13.60;7.85;;;11.60;99.90;;;;;;5055017;28;20036;-58
2022/05/01 09:35:33;;;;;;;11.65;7.45;;;11.70;99.90;;;;;;5050267;28;20041;-58
2022/05/01 09:38:23;;;;;;;12.50;7.97;;;11.80;99.90;;;;;;5061033;28;20467;-60
2022/05/01 09:40:52;;;;;;;12.75;7.40;;;11.90;99.90;;;;;;5053070;28;20036;-59
2022/05/01 09:43:41;;;;;;;11.45;7.38;;;12.00;99.90;;;;;;5067065;28;20510;-59
2022/05/01 09:46:19;;;;;;;13.13;7.72;;;12.10;99.90;;;;;;5049421;28;20511;-58
2022/05/01 09:48:59;;;;;;;13.43;7.90;;;12.10;99.90;;;;;;5060796;28;20052;-58
2022/05/01 09:51:28;;;;;;;12.90;8.23;;;12.20;99.90;;;;;;5048546;28;20051;-58
2022/05/01 09:53:57;;;;;;;12.25;8.48;;;12.30;99.90;;;;;;5039760;28;20293;-62
2022/05/01 09:56:25;;;;;;;12.50;8.40;;;12.40;99.90;;;;;;5052777;28;20045;-59
2022/05/01 09:59:05;;;;;;;13.07;8.27;;;12.40;99.90;;;;;;5056287;28;20048;-63
2022/05/01 10:01:36;;;;;;;12.65;7.90;;;12.40;99.90;;;;;;5050050;28;20044;-62
2022/05/01 10:04:06;;;;;;;10.88;7.03;;;12.50;99.90;;;;;;5048410;28;20040;-63
2022/05/01 10:06:34;;;;;;;11.00;7.30;;;12.50;99.90;;;;;;5059546;28;20392;-63
2022/05/01 10:09:02;;;;;;;9.63;6.32;;;12.60;99.90;;;;;;5054753;28;20055;-59
2022/05/01 10:11:30;;;;;;;9.50;7.18;;;12.70;99.90;;;;;;5048909;28;20049;-62
2022/05/01 10:13:59;;;;;;;13.32;7.05;;;12.80;99.90;;;;;;5049787;28;20378;-62
2022/05/01 10:16:27;;;;;;;11.32;6.43;;;12.90;99.90;;;;;;5050648;28;20041;-61
2022/05/01 10:18:57;;;;;;;12.32;8.20;;;12.90;99.90;;;;;;5053416;28;20044;-62
2022/05/01 10:21:47;;;;;;;13.50;7.88;;;12.80;99.90;;;;;;5048524;28;20033;-63
2022/05/01 10:24:16;;;;;;;10.60;6.68;;;12.90;99.90;;;;;;5045918;28;20048;-64
2022/05/01 10:26:52;;;;;;;10.50;6.47;;;13.00;99.90;;;;;;5049514;28;20385;-62
2022/05/01 10:32:21;;;;;;;8.65;6.47;;;13.10;99.90;;;;;;5067574;28;20056;-63
2022/05/01 10:33:17;;;;;;;7.20;5.38;;;13.20;99.90;;;;;;5051713;28;20048;-63
2022/05/01 10:36:03;;;;;;;;;;;13.20;99.90;;;;;;5049519;28;20056;-59
2022/05/01 10:38:56;;;;;;;8.05;5.78;;;13.20;99.90;;;;;;5052167;28;19927;-64
2022/05/01 10:41:23;;;;;;;8.30;5.40;;;13.10;99.90;;;;;;5050420;28;20048;-59
2022/05/01 10:43:59;;;;;;;9.82;6.05;;;13.00;99.90;;;;;;5049610;28;20488;-60
2022/05/01 10:46:29;;;;;;;8.57;5.40;;;12.90;99.90;;;;;;5048848;28;20532;-59
2022/05/01 10:49:02;;;;;;;9.35;5.63;;;13.00;99.90;;;;;;5063726;28;20049;-59
2022/05/01 10:51:38;;;;;;;7.25;5.43;;;13.20;99.90;;;;;;5072423;28;20044;-61
2022/05/01 10:54:15;;;;;;;7.30;5.38;;;13.30;99.90;;;;;;5063732;28;20044;-60
2022/05/01 10:57:04;;;;;;;7.30;5.57;;;13.40;99.90;;;;;;5056681;28;20413;-59
2022/05/01 10:59:46;;;;;;;7.78;5.70;;;13.30;99.90;;;;;;5055048;28;20045;-60
2022/05/01 11:02:30;;;;;;;8.95;6.22;;;13.20;99.90;;;;;;5057381;28;20359;-59
2022/05/01 11:04:59;;;;;;;7.90;5.90;;;13.10;99.90;;;;;;5050968;28;20797;-59
2022/05/01 11:07:29;;;;;;;8.23;6.03;;;13.00;99.90;;;;;;5053572;28;20061;-58
2022/05/01 11:09:59;;;;;;;8.50;5.70;;;12.90;99.90;;;;;;5053221;28;20301;-59
2022/05/01 11:12:32;;;;;;;9.77;5.97;;;12.70;99.90;;;;;;5063517;28;20486;-58
2022/05/01 11:15:00;;;;;;;8.25;5.72;;;12.60;99.90;;;;;;5070988;28;20051;-60
2022/05/01 11:17:50;;;;;;;8.38;5.50;;;12.50;99.90;;;;;;5054033;28;20048;-58
2022/05/01 11:20:23;;;;;;;8.05;5.35;;;12.50;99.90;;;;;;5053809;28;20043;-58
2022/05/01 11:22:51;;;;;;;6.90;5.10;;;12.50;99.90;;;;;;5054678;28;20396;-60
2022/05/01 11:25:38;;;;;;;7.00;5.60;;;12.50;99.90;;;;;;5052024;28;20041;-59
2022/05/01 11:28:07;;;;;;;7.88;5.85;;;12.40;99.90;;;;;;5061045;28;20280;-63
2022/05/01 11:30:36;;;;;;;11.13;6.28;;;12.50;99.90;;;;;;5058658;28;20059;-59
2022/05/01 11:33:08;;;;;;;8.75;6.20;;;12.50;99.90;;;;;;5052319;28;20056;-58
2022/05/01 11:36:02;;;;;;;11.10;6.20;;;12.50;99.90;;;;;;5047963;28;20485;-58
2022/05/01 11:38:38;;;;;;;9.70;6.75;;;12.50;99.90;;;;;;5062821;28;20049;-62
2022/05/01 11:41:07;;;;;;;11.55;7.25;;;12.50;99.90;;;;;;5050771;28;20484;-59
2022/05/01 11:43:35;;;;;;;8.98;6.03;;;12.40;99.90;;;;;;5052614;28;20052;-59
2022/05/01 11:46:04;;;;;;;10.40;6.55;;;12.40;99.90;;;;;;5051395;28;20049;-60
2022/05/01 11:48:32;;;;;;;8.68;6.13;;;12.30;99.90;;;;;;5061153;28;20376;-63
2022/05/01 11:51:00;;;;;;;7.38;4.97;;;12.30;99.90;;;;;;5054012;28;20043;-58
2022/05/01 11:53:29;;;;;;;10.25;5.97;;;12.30;99.90;;;;;;5054631;28;20045;-59
2022/05/01 12:04:37;;;;;;;11.70;6.47;;;12.20;99.90;;;;;;5051983;28;20053;-58
2022/05/01 12:07:06;;;;;;;11.00;7.38;;;12.20;99.90;;;;;;5054526;28;20049;-58
2022/05/01 12:09:40;;;;;;;12.15;7.60;;;12.20;99.90;;;;;;5071544;28;20051;-59
2022/05/01 12:12:11;;;;;;;10.80;7.10;;;12.10;99.90;;;;;;5060001;28;20048;-59
2022/05/01 12:14:41;;;;;;;10.77;7.38;;;12.00;99.90;;;;;;5051104;28;20527;-58
2022/05/01 12:17:16;;;;;;;12.80;7.90;;;12.10;99.90;;;;;;5055552;28;20056;-59
2022/05/01 12:19:54;;;;;;;11.88;7.90;;;12.00;99.90;;;;;;5050910;28;20392;-59
2022/05/01 12:22:25;;;;;;;11.98;7.68;;;12.10;99.90;;;;;;5051938;28;20041;-59
2022/05/01 12:24:55;;;;;;;10.18;7.35;;;12.10;99.90;;;;;;5050866;28;20052;-59
2022/05/01 12:27:25;;;;;;;11.13;7.20;;;12.20;99.90;;;;;;5055570;28;20045;-60
2022/05/01 12:29:55;;;;;;;23.27;14.02;;;12.20;99.90;;;;;;5071759;28;20045;-59
2022/05/01 12:32:24;;;;;;;13.13;9.88;;;12.20;99.90;;;;;;5065687;28;20477;-59
2022/05/01 12:34:51;;;;;;;10.25;7.32;;;12.30;99.90;;;;;;5049989;28;20059;-58
2022/05/01 12:37:24;;;;;;;10.10;7.33;;;12.30;99.90;;;;;;5052727;28;20049;-59
2022/05/01 12:43:50;;;;;;;10.45;7.13;;;12.30;99.90;;;;;;5053956;28;20041;-58
2022/05/01 12:45:48;;;;;;;10.57;6.60;;;12.40;99.90;;;;;;5053729;28;20040;-62
2022/05/01 12:48:18;;;;;;;9.07;6.45;;;12.50;99.90;;;;;;5061614;28;20082;-64
2022/05/01 12:50:51;;;;;;;8.95;6.35;;;12.60;99.90;;;;;;5051014;28;20389;-64
2022/05/01 12:53:29;;;;;;;10.20;6.45;;;12.80;99.90;;;;;;5065524;28;20044;-59
2022/05/01 12:56:02;;;;;;;8.50;6.72;;;13.00;99.90;;;;;;5054559;28;20037;-59
2022/05/01 12:58:35;;;;;;;14.88;10.15;;;13.20;99.90;;;;;;5050820;28;20048;-60
2022/05/01 13:01:05;;;;;;;8.70;6.32;;;13.30;99.90;;;;;;5049732;28;20053;-59
2022/05/01 13:03:38;;;;;;;10.82;6.55;;;13.30;99.90;;;;;;5048828;28;20429;-60
2022/05/01 13:06:09;;;;;;;19.15;11.52;;;13.30;99.90;;;;;;5049927;28;20037;-60
2022/05/01 13:08:38;;;;;;;10.10;7.05;;;13.20;99.90;;;;;;5055445;28;20056;-61
2022/05/01 13:11:11;;;;;;;17.90;11.43;;;13.10;99.90;;;;;;5048237;28;20496;-59
2022/05/01 13:13:45;;;;;;;25.98;15.30;;;13.00;99.90;;;;;;5056320;28;20507;-59
2022/05/01 13:16:16;;;;;;;15.88;8.80;;;12.90;99.90;;;;;;5051508;28;20038;-59
2022/05/01 13:18:45;;;;;;;9.80;6.32;;;12.80;99.90;;;;;;5061669;28;20416;-59
2022/05/01 13:21:13;;;;;;;8.88;6.00;;;12.80;99.90;;;;;;5069693;28;20055;-58
2022/05/01 13:23:42;;;;;;;8.40;6.40;;;12.80;99.90;;;;;;5070713;28;20059;-59
2022/05/01 13:26:09;;;;;;;11.20;7.13;;;13.00;99.90;;;;;;5070772;28;20055;-59
2022/05/01 13:28:37;;;;;;;10.82;7.20;;;13.20;99.90;;;;;;5070514;28;20056;-59
2022/05/01 13:31:05;;;;;;;10.68;6.80;;;13.40;99.90;;;;;;5070342;28;20079;-59